createdAt,value
2019-02-24T00:01:44.650Z,94.70
2019-02-24T00:04:47.589Z,95.60
2019-02-24T00:07:50.555Z,95.10
2019-02-24T00:10:54.054Z,93.50
2019-02-24T00:13:57.272Z,95.40
2019-02-24T00:17:00.225Z,95.10
2019-02-24T00:20:03.238Z,94.10
2019-02-24T00:23:06.626Z,93.90
2019-02-24T00:26:10.163Z,94.40
2019-02-24T00:29:13.443Z,93.70
2019-02-24T00:32:16.747Z,93.80
2019-02-24T00:35:20.015Z,93.60
2019-02-24T00:38:23.285Z,93.40
2019-02-24T00:41:26.569Z,93.50
2019-02-24T00:44:29.776Z,93.00
2019-02-24T00:47:33.281Z,93.90
2019-02-24T00:50:36.229Z,93.60
2019-02-24T00:53:39.327Z,92.80
2019-02-24T00:56:42.650Z,92.50
2019-02-24T00:59:45.599Z,93.80
2019-02-24T01:02:48.940Z,93.60
2019-02-24T01:05:52.712Z,94.60
2019-02-24T01:08:55.686Z,94.00
2019-02-24T01:11:58.891Z,94.50
2019-02-24T01:15:02.120Z,95.20
2019-02-24T01:18:05.769Z,95.10
2019-02-24T01:21:09.764Z,94.60
2019-02-24T01:24:13.041Z,95.40
2019-02-24T01:27:15.982Z,95.00
2019-02-24T01:30:19.217Z,95.70
2019-02-24T01:33:22.436Z,97.50
2019-02-24T01:36:25.650Z,97.70
2019-02-24T01:39:29.512Z,98.10
2019-02-24T01:42:32.455Z,98.50
2019-02-24T01:45:35.950Z,98.10
2019-02-24T01:48:39.173Z,97.50
2019-02-24T01:51:42.432Z,97.70
2019-02-24T01:54:45.945Z,97.40
2019-02-24T01:57:49.448Z,97.60
2019-02-24T02:00:52.981Z,98.40
2019-02-24T02:03:56.358Z,97.60
2019-02-24T02:06:59.627Z,97.50
2019-02-24T02:10:02.768Z,97.50
2019-02-24T02:13:05.988Z,97.30
2019-02-24T02:16:08.956Z,97.90
2019-02-24T02:19:12.209Z,98.30
2019-02-24T02:22:15.494Z,99.10
2019-02-24T02:25:18.691Z,98.40
2019-02-24T02:28:22.813Z,96.20
2019-02-24T02:31:25.765Z,97.10
2019-02-24T02:34:29.303Z,98.00
2019-02-24T02:37:32.799Z,97.30
2019-02-24T02:40:36.017Z,96.30
2019-02-24T02:43:39.844Z,97.60
2019-02-24T02:46:43.417Z,97.40
2019-02-24T02:49:46.357Z,97.20
2019-02-24T02:52:49.882Z,98.20
2019-02-24T02:55:52.823Z,97.60
2019-02-24T02:58:55.782Z,98.10
2019-02-24T03:01:59.130Z,98.40
2019-02-24T03:05:02.280Z,97.80
2019-02-24T03:08:10.556Z,97.90
2019-02-24T03:11:14.314Z,98.10
2019-02-24T03:14:17.877Z,98.20
2019-02-24T03:17:21.092Z,98.20
2019-02-24T03:20:24.062Z,98.10
2019-02-24T03:23:27.270Z,97.90
2019-02-24T03:26:30.878Z,97.90
2019-02-24T03:29:34.096Z,97.70
2019-02-24T03:32:37.313Z,97.60
2019-02-24T03:35:41.963Z,96.70
2019-02-24T03:38:45.515Z,97.00
2019-02-24T03:41:49.018Z,97.30
2019-02-24T03:44:52.294Z,96.80
2019-02-24T03:47:55.756Z,97.00
2019-02-24T03:50:59.313Z,97.00
2019-02-24T03:54:02.588Z,97.30
2019-02-24T03:57:05.872Z,97.90
2019-02-24T04:00:09.561Z,97.10
2019-02-24T04:03:14.189Z,97.50
2019-02-24T04:06:17.518Z,97.40
2019-02-24T04:09:20.555Z,97.80
2019-02-24T04:12:24.061Z,96.20
2019-02-24T04:15:27.008Z,97.20
2019-02-24T04:18:30.548Z,97.40
2019-02-24T04:21:34.228Z,98.10
2019-02-24T04:24:37.485Z,97.30
2019-02-24T04:27:40.460Z,97.20
2019-02-24T04:30:44.020Z,96.80
2019-02-24T04:33:47.519Z,97.60
2019-02-24T04:36:50.759Z,98.10
2019-02-24T04:39:53.978Z,98.10
2019-02-24T04:42:58.646Z,97.20
2019-02-24T04:46:01.612Z,97.30
2019-02-24T04:49:04.547Z,97.10
2019-02-24T04:52:07.815Z,97.10
2019-02-24T04:55:10.759Z,97.30
2019-02-24T04:58:14.396Z,97.00
2019-02-24T05:01:17.721Z,97.20
2019-02-24T05:04:20.980Z,97.20
2019-02-24T05:07:24.878Z,97.20
2019-02-24T05:10:28.134Z,97.80
2019-02-24T05:13:31.983Z,97.70
2019-02-24T05:16:35.207Z,96.80
2019-02-24T05:19:38.538Z,97.00
2019-02-24T05:22:41.823Z,97.60
2019-02-24T05:25:44.775Z,97.40
2019-02-24T05:28:48.915Z,95.90
2019-02-24T05:31:52.402Z,95.70
2019-02-24T05:34:55.671Z,96.70
2019-02-24T05:37:58.648Z,96.40
2019-02-24T05:41:01.903Z,96.50
2019-02-24T05:44:05.223Z,96.70
2019-02-24T05:47:08.704Z,96.50
2019-02-24T05:50:11.669Z,96.40
2019-02-24T05:53:15.220Z,97.10
2019-02-24T05:56:18.579Z,97.00
2019-02-24T05:59:21.888Z,97.00
2019-02-24T06:02:25.153Z,97.00
2019-02-24T06:05:29.099Z,97.10
2019-02-24T06:08:32.082Z,97.30
2019-02-24T06:11:35.895Z,97.10
2019-02-24T06:14:39.858Z,96.90
2019-02-24T06:17:44.751Z,96.90
2019-02-24T06:20:48.371Z,96.60
2019-02-24T06:23:51.608Z,96.50
2019-02-24T06:26:55.133Z,96.10
2019-02-24T06:30:05.097Z,96.20
2019-02-24T06:33:04.360Z,96.60
2019-02-24T06:36:07.317Z,97.10
2019-02-24T06:39:10.813Z,97.00
2019-02-24T06:42:14.631Z,96.20
2019-02-24T06:45:17.964Z,96.20
2019-02-24T06:48:21.183Z,96.10
2019-02-24T06:51:24.457Z,96.40
2019-02-24T06:54:28.080Z,97.00
2019-02-24T06:57:31.681Z,95.80
2019-02-24T07:00:35.167Z,96.20
2019-02-24T07:03:38.236Z,96.30
2019-02-24T07:06:41.772Z,96.50
2019-02-24T07:09:44.760Z,96.70
2019-02-24T07:12:47.724Z,97.40
2019-02-24T07:15:50.949Z,97.70
2019-02-24T07:18:54.206Z,97.80
2019-02-24T07:21:57.694Z,97.10
2019-02-24T07:25:00.939Z,97.60
2019-02-24T07:28:03.892Z,97.50
2019-02-24T07:31:07.130Z,96.70
2019-02-24T07:34:10.129Z,96.80
2019-02-24T07:37:14.395Z,97.20
2019-02-24T07:40:17.662Z,97.60
2019-02-24T07:43:20.894Z,96.60
2019-02-24T07:46:24.208Z,97.40
2019-02-24T07:49:28.443Z,97.90
2019-02-24T07:52:31.400Z,96.80
2019-02-24T07:55:34.352Z,97.60
2019-02-24T07:58:37.292Z,98.00
2019-02-24T08:01:42.473Z,97.60
2019-02-24T08:04:46.038Z,97.50
2019-02-24T08:07:49.257Z,97.40
2019-02-24T08:10:52.545Z,97.80
2019-02-24T08:13:55.504Z,97.80
2019-02-24T08:16:59.127Z,98.90
2019-02-24T08:21:01.238Z,98.80
2019-02-24T08:24:04.843Z,99.00
2019-02-24T08:27:07.814Z,99.70
2019-02-24T08:30:10.872Z,99.90
2019-02-24T08:33:13.916Z,99.90
2019-02-24T08:36:17.768Z,99.90
2019-02-24T08:39:20.703Z,99.90
2019-02-24T08:42:25.080Z,99.90
2019-02-24T08:45:28.024Z,99.90
2019-02-24T08:48:31.183Z,99.90
2019-02-24T08:51:35.164Z,99.90
2019-02-24T08:54:38.113Z,99.90
2019-02-24T08:57:41.382Z,99.90
2019-02-24T09:00:50.699Z,99.90
2019-02-24T09:03:50.067Z,99.90
2019-02-24T09:06:53.022Z,99.90
2019-02-24T09:09:56.544Z,99.90
2019-02-24T09:13:00.063Z,99.90
2019-02-24T09:16:03.327Z,99.90
2019-02-24T09:19:06.365Z,99.90
2019-02-24T09:22:09.349Z,99.90
2019-02-24T09:25:13.108Z,99.90
2019-02-24T09:28:16.157Z,99.30
2019-02-24T09:31:19.209Z,98.70
2019-02-24T09:34:22.443Z,98.00
2019-02-24T09:37:26.728Z,97.40
2019-02-24T09:40:29.667Z,97.00
2019-02-24T09:43:33.183Z,96.30
2019-02-24T09:46:36.501Z,95.70
2019-02-24T09:49:39.452Z,95.30
2019-02-24T09:52:42.674Z,95.40
2019-02-24T09:55:46.550Z,94.80
2019-02-24T09:58:49.521Z,94.30
2019-02-24T10:01:52.825Z,94.40
2019-02-24T10:04:56.122Z,92.80
2019-02-24T10:07:59.637Z,92.60
2019-02-24T10:11:03.202Z,92.20
2019-02-24T10:14:06.734Z,89.60
2019-02-24T10:17:09.712Z,91.00
2019-02-24T10:20:12.812Z,92.40
2019-02-24T10:23:16.068Z,92.30
2019-02-24T10:26:19.018Z,87.60
2019-02-24T10:29:22.267Z,88.30
2019-02-24T10:32:26.127Z,90.20
2019-02-24T10:35:29.645Z,92.20
2019-02-24T10:38:32.695Z,90.90
2019-02-24T10:41:35.636Z,91.40
2019-02-24T10:44:38.883Z,92.50
2019-02-24T10:47:42.159Z,65.40
2019-02-24T10:50:45.678Z,87.70
2019-02-24T10:53:48.948Z,80.30
2019-02-24T10:56:52.444Z,84.30
2019-02-24T10:59:56.251Z,85.50
2019-02-24T11:02:59.728Z,76.60
2019-02-24T11:06:02.691Z,84.00
2019-02-24T11:09:06.416Z,68.90
2019-02-24T11:12:09.826Z,67.00
2019-02-24T11:15:13.296Z,72.10
2019-02-24T11:18:16.625Z,72.50
2019-02-24T11:21:19.841Z,67.80
2019-02-24T11:24:22.902Z,68.80
2019-02-24T11:27:25.860Z,70.30
2019-02-24T11:30:29.235Z,72.90
2019-02-24T11:33:32.272Z,45.70
2019-02-24T11:36:35.791Z,41.70
2019-02-24T11:39:38.758Z,48.00
2019-02-24T11:42:41.962Z,47.60
2019-02-24T11:45:44.941Z,48.10
2019-02-24T11:48:48.163Z,46.00
2019-02-24T11:51:51.154Z,44.60
2019-02-24T11:54:54.985Z,41.80
2019-02-24T11:57:58.288Z,38.30
2019-02-24T12:01:01.840Z,41.00
2019-02-24T12:04:05.318Z,39.90
2019-02-24T12:07:08.900Z,42.60
2019-02-24T12:10:12.247Z,40.20
2019-02-24T12:13:15.308Z,37.40
2019-02-24T12:16:19.140Z,36.70
2019-02-24T12:19:22.792Z,36.00
2019-02-24T12:22:25.855Z,38.20
2019-02-24T12:25:29.111Z,34.00
2019-02-24T12:28:32.388Z,37.10
2019-02-24T12:31:36.342Z,37.40
2019-02-24T12:34:39.576Z,36.20
2019-02-24T12:37:42.843Z,41.10
2019-02-24T12:40:46.087Z,36.60
2019-02-24T12:43:49.403Z,35.90
2019-02-24T12:46:52.372Z,31.90
2019-02-24T12:50:02.915Z,34.90
2019-02-24T12:53:01.302Z,34.40
2019-02-24T12:56:04.602Z,38.40
2019-02-24T12:59:08.177Z,37.80
2019-02-24T13:02:11.239Z,34.60
2019-02-24T13:05:14.455Z,38.80
2019-02-24T13:08:17.560Z,36.10
2019-02-24T13:11:21.530Z,38.40
2019-02-24T13:14:24.795Z,33.10
2019-02-24T13:17:28.037Z,36.80
2019-02-24T13:20:31.081Z,37.80
2019-02-24T13:23:35.305Z,36.40
2019-02-24T13:26:38.544Z,36.50
2019-02-24T13:29:41.515Z,33.80
2019-02-24T13:32:44.755Z,37.20
2019-02-24T13:35:47.815Z,36.30
2019-02-24T13:38:51.083Z,36.40
2019-02-24T13:41:54.318Z,39.40
2019-02-24T13:44:57.282Z,37.10
2019-02-24T13:48:01.515Z,38.10
2019-02-24T13:51:04.860Z,39.10
2019-02-24T13:54:07.819Z,40.70
2019-02-24T13:57:11.121Z,38.50
2019-02-24T14:00:15.202Z,40.40
2019-02-24T14:03:18.527Z,42.20
2019-02-24T14:06:21.735Z,38.70
2019-02-24T14:09:24.983Z,35.60
2019-02-24T14:12:27.916Z,37.60
2019-02-24T14:15:31.186Z,36.00
2019-02-24T14:18:34.726Z,37.40
2019-02-24T14:21:38.529Z,36.40
2019-02-24T14:24:41.521Z,37.40
2019-02-24T14:27:44.488Z,36.80
2019-02-24T14:30:47.741Z,35.40
2019-02-24T14:33:50.731Z,36.70
2019-02-24T14:36:53.946Z,33.70
2019-02-24T14:39:57.281Z,34.50
2019-02-24T14:43:00.256Z,36.40
2019-02-24T14:46:03.763Z,36.00
2019-02-24T14:49:06.831Z,36.30
2019-02-24T14:52:10.520Z,35.60
2019-02-24T14:55:13.880Z,38.10
2019-02-24T14:58:17.203Z,34.20
2019-02-24T15:01:20.234Z,33.40
2019-02-24T15:04:23.344Z,34.40
2019-02-24T15:07:26.416Z,37.50
2019-02-24T15:10:29.971Z,38.00
2019-02-24T15:13:33.234Z,34.20
2019-02-24T15:16:36.218Z,37.90
2019-02-24T15:19:39.779Z,38.00
2019-02-24T15:22:43.934Z,35.60
2019-02-24T15:25:47.247Z,35.30
2019-02-24T15:28:50.531Z,33.30
2019-02-24T15:31:53.757Z,32.80
2019-02-24T15:34:57.436Z,36.30
2019-02-24T15:38:00.753Z,38.30
2019-02-24T15:41:03.723Z,41.10
2019-02-24T15:44:06.675Z,43.40
2019-02-24T15:47:09.660Z,48.10
2019-02-24T15:50:12.832Z,51.50
2019-02-24T15:53:16.406Z,52.20
2019-02-24T15:56:19.403Z,47.20
2019-02-24T15:59:23.824Z,52.00
2019-02-24T16:02:26.767Z,54.50
2019-02-24T16:05:30.023Z,57.30
2019-02-24T16:08:33.240Z,57.80
2019-02-24T16:11:37.081Z,56.80
2019-02-24T16:14:40.314Z,59.50
2019-02-24T16:17:43.879Z,60.40
2019-02-24T16:20:47.189Z,60.30
2019-02-24T16:23:50.153Z,65.40
2019-02-24T16:26:53.401Z,66.70
2019-02-24T16:29:56.929Z,70.60
2019-02-24T16:32:59.877Z,68.30
2019-02-24T16:36:03.458Z,69.70
2019-02-24T16:39:06.444Z,72.00
2019-02-24T16:42:11.014Z,75.70
2019-02-24T16:45:14.242Z,77.50
2019-02-24T16:48:18.236Z,78.40
2019-02-24T16:51:21.470Z,79.00
2019-02-24T16:54:24.412Z,80.00
2019-02-24T16:57:27.364Z,79.40
2019-02-24T17:00:31.263Z,80.50
2019-02-24T17:03:34.829Z,78.40
2019-02-24T17:06:38.219Z,80.40
2019-02-24T17:09:41.986Z,78.30
2019-02-24T17:12:45.273Z,78.40
2019-02-24T17:15:48.258Z,78.30
2019-02-24T17:18:51.796Z,80.20
2019-02-24T17:21:54.812Z,77.40
2019-02-24T17:24:58.056Z,78.70
2019-02-24T17:28:01.307Z,78.20
2019-02-24T17:31:04.381Z,77.60
2019-02-24T17:34:07.352Z,76.70
2019-02-24T17:37:19.682Z,77.30
2019-02-24T17:40:16.620Z,78.10
2019-02-24T17:43:19.640Z,78.50
2019-02-24T17:46:23.180Z,78.50
2019-02-24T17:49:26.429Z,78.80
2019-02-24T17:52:29.836Z,78.00
2019-02-24T17:55:33.438Z,79.80
2019-02-24T17:58:36.395Z,79.20
2019-02-24T18:01:39.927Z,80.40
2019-02-24T18:04:43.198Z,80.30
2019-02-24T18:07:46.171Z,80.70
2019-02-24T18:10:49.146Z,80.70
2019-02-24T18:13:52.521Z,81.00
2019-02-24T18:16:55.955Z,79.80
2019-02-24T18:19:59.235Z,80.30
2019-02-24T18:23:02.228Z,81.00
2019-02-24T18:26:06.499Z,79.80
2019-02-24T18:29:09.871Z,80.20
2019-02-24T18:32:13.160Z,81.10
2019-02-24T18:35:16.496Z,80.10
2019-02-24T18:38:19.705Z,80.60
2019-02-24T18:41:23.205Z,80.00
2019-02-24T18:44:26.165Z,79.20
2019-02-24T18:47:30.026Z,80.00
2019-02-24T18:50:32.967Z,80.30
2019-02-24T18:53:36.212Z,80.40
2019-02-24T18:56:39.485Z,78.90
2019-02-24T18:59:43.000Z,81.20
2019-02-24T19:02:46.530Z,80.80
2019-02-24T19:05:50.124Z,82.60
2019-02-24T19:08:53.371Z,83.30
2019-02-24T19:11:56.310Z,82.30
2019-02-24T19:14:59.561Z,83.60
2019-02-24T19:18:02.575Z,82.90
2019-02-24T19:21:05.538Z,83.00
2019-02-24T19:24:08.870Z,82.30
2019-02-24T19:27:13.071Z,82.50
2019-02-24T19:30:16.100Z,82.60
2019-02-24T19:33:19.847Z,82.50
2019-02-24T19:36:22.813Z,83.10
2019-02-24T19:39:25.878Z,82.60
2019-02-24T19:42:29.102Z,83.60
2019-02-24T19:45:32.069Z,82.30
2019-02-24T19:48:41.767Z,82.60
2019-02-24T19:51:40.135Z,82.50
2019-02-24T19:54:43.360Z,80.40
2019-02-24T19:57:46.627Z,81.10
2019-02-24T20:00:49.593Z,80.60
2019-02-24T20:03:52.829Z,79.60
2019-02-24T20:06:55.795Z,80.70
2019-02-24T20:09:59.280Z,80.10
2019-02-24T20:13:02.527Z,80.30
2019-02-24T20:16:06.095Z,80.00
2019-02-24T20:19:09.385Z,83.20
2019-02-24T20:22:12.981Z,84.70
2019-02-24T20:25:16.075Z,82.60
2019-02-24T20:28:19.013Z,81.30
2019-02-24T20:31:21.972Z,82.80
2019-02-24T20:34:25.967Z,83.40
2019-02-24T20:37:29.369Z,83.00
2019-02-24T20:40:33.435Z,83.50
2019-02-24T20:43:36.663Z,84.20
2019-02-24T20:46:39.921Z,84.10
2019-02-24T20:49:43.691Z,82.70
2019-02-24T20:52:46.977Z,84.80
2019-02-24T20:55:49.939Z,84.90
2019-02-24T20:58:53.164Z,83.10
2019-02-24T21:01:56.710Z,83.70
2019-02-24T21:05:00.567Z,82.50
2019-02-24T21:08:03.876Z,84.80
2019-02-24T21:11:07.261Z,85.00
2019-02-24T21:14:10.481Z,85.90
2019-02-24T21:17:13.780Z,85.30
2019-02-24T21:20:19.526Z,85.10
2019-02-24T21:23:22.842Z,84.80
2019-02-24T21:26:25.824Z,85.00
2019-02-24T21:29:29.406Z,83.70
2019-02-24T21:32:32.976Z,84.40
2019-02-24T21:35:36.191Z,85.10
2019-02-24T21:38:39.984Z,84.70
2019-02-24T21:41:43.011Z,87.60
2019-02-24T21:44:46.079Z,86.00
2019-02-24T21:47:49.293Z,87.10
2019-02-24T21:50:52.529Z,88.00
2019-02-24T21:53:55.670Z,85.00
2019-02-24T21:57:00.292Z,83.00
2019-02-24T22:00:06.113Z,84.70
2019-02-24T22:03:09.869Z,87.70
2019-02-24T22:06:13.917Z,88.50
2019-02-24T22:09:17.605Z,89.20
2019-02-24T22:12:20.731Z,87.30
2019-02-24T22:15:23.860Z,88.10
2019-02-24T22:18:26.876Z,89.20
2019-02-24T22:21:29.847Z,88.00
2019-02-24T22:24:33.361Z,88.80
2019-02-24T22:27:36.414Z,89.80
2019-02-24T22:30:39.656Z,87.80
2019-02-24T22:33:43.234Z,85.30
2019-02-24T22:36:46.183Z,85.90
2019-02-24T22:39:49.153Z,88.20
2019-02-24T22:42:52.105Z,90.30
2019-02-24T22:45:55.066Z,90.10
2019-02-24T22:48:58.040Z,90.20
2019-02-24T22:52:01.320Z,89.00
2019-02-24T22:55:05.017Z,88.40
2019-02-24T22:58:08.229Z,87.50
2019-02-24T23:01:19.732Z,90.00
2019-02-24T23:04:24.109Z,91.10
2019-02-24T23:07:27.343Z,91.20
2019-02-24T23:10:30.296Z,90.20
2019-02-24T23:13:33.233Z,90.30
2019-02-24T23:16:36.582Z,90.80
2019-02-24T23:19:39.865Z,92.00
2019-02-24T23:22:43.115Z,91.60
2019-02-24T23:25:46.089Z,91.20
2019-02-24T23:28:50.773Z,91.20
2019-02-24T23:31:54.070Z,91.50
2019-02-24T23:34:57.583Z,91.50
2019-02-24T23:38:01.183Z,91.50
2019-02-24T23:41:04.824Z,90.90
2019-02-24T23:44:07.866Z,90.90
2019-02-24T23:47:10.929Z,91.60
2019-02-24T23:50:14.250Z,91.60
2019-02-24T23:53:18.082Z,91.70
2019-02-24T23:56:21.048Z,91.60
2019-02-24T23:59:24.270Z,91.20
